Time;durP1;ratioP1;P1;durP2;ratioP2;P2;SDS_P1;SDS_P2;PMS_P1;PMS_P2;Temp;Humidity;BMP_temperature;BMP_pressure;BME280_temperature;BME280_humidity;BME280_pressure;Samples;Min_cycle;Max_cycle;Signal;HPM_P1;HPM_P2
2021/12/05 00:20:29;;;;;;;12.07;4.20;;;3.60;99.90;;;;;;4948899;28;20045;-61
2021/12/05 00:22:51;;;;;;;16.67;4.20;;;3.60;99.90;;;;;;4946832;28;20046;-60
2021/12/05 00:25:25;;;;;;;13.80;4.07;;;3.60;99.90;;;;;;4920803;28;20481;-59
2021/12/05 00:28:14;;;;;;;9.15;3.13;;;3.60;99.90;;;;;;4958738;28;20046;-59
2021/12/05 01:00:47;;;;;;;14.82;2.85;;;3.80;99.90;;;;;;4952879;28;20038;-61
2021/12/05 01:14:28;;;;;;;6.57;2.20;;;3.80;99.90;;;;;;4946846;28;20039;-59
2021/12/05 01:16:30;;;;;;;12.25;2.10;;;3.80;99.90;;;;;;4948409;28;20047;-60
2021/12/05 01:18:56;;;;;;;11.68;3.75;;;3.80;99.90;;;;;;4949628;28;20023;-60
2021/12/05 01:21:24;;;;;;;12.50;3.38;;;3.80;99.90;;;;;;4949855;28;20102;-60
2021/12/05 01:24:00;;;;;;;11.85;2.33;;;3.80;99.90;;;;;;4948247;28;20031;-60
2021/12/05 01:34:44;;;;;;;11.43;2.37;;;3.80;99.90;;;;;;4953030;28;19930;-60
2021/12/05 01:45:34;;;;;;;7.15;2.17;;;3.60;99.90;;;;;;4943083;28;20400;-60
2021/12/05 01:48:43;;;;;;;7.32;1.30;;;3.70;99.90;;;;;;4947473;28;20134;-60
2021/12/05 01:51:31;;;;;;;12.52;3.08;;;3.70;99.90;;;;;;4951023;28;20066;-60
2021/12/05 02:09:58;;;;;;;10.27;2.75;;;3.70;99.90;;;;;;4947562;28;20046;-59
2021/12/05 02:15:38;;;;;;;13.60;1.70;;;3.70;99.90;;;;;;4954612;28;20456;-60
2021/12/05 02:29:38;;;;;;;;;;;3.60;99.90;;;;;;4951376;28;20086;-60
2021/12/05 02:37:32;;;;;;;11.00;2.20;;;3.60;99.90;;;;;;4955384;28;20663;-60
2021/12/05 02:42:51;;;;;;;11.45;2.05;;;3.60;99.90;;;;;;4950711;28;20045;-59
2021/12/05 02:45:17;;;;;;;12.98;2.50;;;3.60;99.90;;;;;;4947373;28;20023;-60
2021/12/05 02:47:49;;;;;;;15.05;3.20;;;3.70;99.90;;;;;;4953361;28;20116;-61
2021/12/05 02:50:16;;;;;;;15.00;2.15;;;3.70;99.90;;;;;;4961467;28;20117;-60
2021/12/05 02:52:42;;;;;;;16.85;2.08;;;3.80;99.90;;;;;;4951364;28;20027;-59
2021/12/05 02:55:25;;;;;;;10.88;2.20;;;3.80;99.90;;;;;;4963096;28;20030;-60
2021/12/05 02:57:59;;;;;;;20.13;2.13;;;3.80;99.90;;;;;;4955849;28;20018;-59
2021/12/05 03:00:38;;;;;;;;;;;3.90;99.90;;;;;;4952239;28;20397;-58
2021/12/05 03:03:17;;;;;;;19.27;1.98;;;3.90;99.90;;;;;;4950375;28;19906;-59
2021/12/05 03:05:44;;;;;;;13.55;2.30;;;3.90;99.90;;;;;;4955850;28;20041;-60
2021/12/05 03:08:10;;;;;;;20.05;3.22;;;3.90;99.90;;;;;;4957657;28;20106;-59
2021/12/05 03:10:36;;;;;;;7.35;2.30;;;3.90;99.90;;;;;;4948625;28;20126;-60
2021/12/05 03:13:01;;;;;;;11.57;2.25;;;4.00;99.90;;;;;;4951406;28;20078;-60
2021/12/05 03:15:27;;;;;;;11.82;1.95;;;3.90;99.90;;;;;;4958570;28;20027;-61
2021/12/05 03:17:53;;;;;;;11.20;1.73;;;3.90;99.90;;;;;;4950329;28;20080;-61
2021/12/05 03:20:19;;;;;;;7.07;1.85;;;3.90;99.90;;;;;;4952166;28;20042;-61
2021/12/05 03:22:45;;;;;;;9.45;2.40;;;3.80;99.90;;;;;;4948956;28;20476;-60
2021/12/05 03:25:11;;;;;;;14.15;2.42;;;3.80;99.90;;;;;;4959901;28;20083;-58
2021/12/05 03:27:39;;;;;;;16.45;2.35;;;3.80;99.90;;;;;;4948018;28;20059;-59
2021/12/05 03:30:07;;;;;;;10.20;2.05;;;3.80;99.90;;;;;;4945814;28;20027;-61
2021/12/05 03:32:33;;;;;;;11.27;2.05;;;3.80;99.90;;;;;;4950547;28;20039;-59
2021/12/05 03:34:59;;;;;;;8.32;1.73;;;3.80;99.90;;;;;;4944413;28;20026;-61
2021/12/05 03:37:24;;;;;;;7.93;1.95;;;3.80;99.90;;;;;;4949589;28;20023;-60
2021/12/05 03:39:50;;;;;;;15.05;2.25;;;3.80;99.90;;;;;;4945865;28;20042;-57
2021/12/05 03:42:16;;;;;;;11.27;1.60;;;3.80;99.90;;;;;;4952883;28;20541;-59
2021/12/05 03:44:41;;;;;;;11.30;2.00;;;3.80;99.90;;;;;;4951749;28;20027;-61
2021/12/05 03:47:09;;;;;;;8.43;1.70;;;3.80;99.90;;;;;;4949533;28;20041;-60
2021/12/05 03:49:36;;;;;;;20.00;2.92;;;3.70;99.90;;;;;;4950796;28;20019;-60
2021/12/05 03:52:08;;;;;;;6.97;1.35;;;3.60;99.90;;;;;;4952973;28;20019;-58
2021/12/05 03:54:34;;;;;;;8.93;2.00;;;3.60;99.90;;;;;;4939706;28;20031;-60
2021/12/05 03:57:02;;;;;;;11.10;1.60;;;3.50;99.90;;;;;;4948937;28;20090;-61
2021/12/05 03:59:28;;;;;;;15.70;1.90;;;3.40;99.90;;;;;;4950014;28;20086;-60
2021/12/05 04:01:56;;;;;;;10.57;1.80;;;3.30;99.90;;;;;;4949430;28;21554;-60
2021/12/05 04:04:22;;;;;;;7.22;1.77;;;3.30;99.90;;;;;;4945976;28;20094;-60
2021/12/05 04:06:48;;;;;;;6.78;1.60;;;3.30;99.90;;;;;;4946135;28;20588;-60
2021/12/05 04:09:16;;;;;;;9.85;2.05;;;3.30;99.90;;;;;;4947649;28;20512;-59
2021/12/05 04:11:55;;;;;;;10.77;2.53;;;3.40;99.90;;;;;;4958785;28;20023;-60
2021/12/05 04:14:21;;;;;;;14.10;1.90;;;3.40;99.90;;;;;;4953911;28;20111;-60
2021/12/05 04:16:48;;;;;;;7.38;1.58;;;3.50;99.90;;;;;;4943637;28;20442;-58
2021/12/05 04:19:14;;;;;;;9.60;2.10;;;3.50;99.90;;;;;;4950894;28;20497;-60
2021/12/05 04:21:41;;;;;;;11.60;2.22;;;3.50;99.90;;;;;;4949858;28;20049;-61
2021/12/05 04:24:09;;;;;;;12.80;1.52;;;3.60;99.90;;;;;;4956087;28;20524;-59
2021/12/05 04:26:35;;;;;;;11.85;2.08;;;3.60;99.90;;;;;;4938300;28;20047;-59
2021/12/05 04:29:02;;;;;;;9.95;1.85;;;3.60;99.90;;;;;;4948950;28;20035;-59
2021/12/05 04:31:28;;;;;;;13.55;2.30;;;3.60;99.90;;;;;;4950551;28;20028;-59
2021/12/05 04:33:54;;;;;;;10.05;1.35;;;3.60;99.90;;;;;;4948503;28;20031;-58
2021/12/05 04:36:20;;;;;;;13.48;3.38;;;3.60;99.90;;;;;;4949437;28;20039;-60
2021/12/05 04:38:47;;;;;;;10.80;2.35;;;3.60;99.90;;;;;;4948678;28;20062;-59
2021/12/05 04:41:13;;;;;;;13.45;2.72;;;3.60;99.90;;;;;;4951929;28;20067;-53
2021/12/05 04:43:39;;;;;;;13.50;2.30;;;3.60;99.90;;;;;;4947890;28;20449;-60
2021/12/05 04:46:16;;;;;;;14.93;1.73;;;3.50;99.90;;;;;;4949168;28;20177;-60
2021/12/05 04:48:46;;;;;;;8.13;1.60;;;3.50;99.90;;;;;;4950380;28;20038;-60
2021/12/05 04:51:12;;;;;;;12.48;1.58;;;3.40;99.90;;;;;;4947965;28;20028;-54
2021/12/05 04:53:37;;;;;;;8.85;1.60;;;3.30;99.90;;;;;;4947821;28;20062;-60
2021/12/05 04:56:03;;;;;;;5.63;1.42;;;3.20;99.90;;;;;;4950752;28;20039;-59
2021/12/05 04:58:29;;;;;;;10.50;1.77;;;3.00;99.90;;;;;;4938915;28;20127;-60
2021/12/05 05:00:57;;;;;;;6.40;1.40;;;2.90;99.90;;;;;;4950799;28;20819;-60
2021/12/05 05:03:24;;;;;;;9.80;1.35;;;2.80;99.90;;;;;;4959284;28;20476;-60
2021/12/05 05:05:57;;;;;;;12.77;2.03;;;2.70;99.90;;;;;;4957352;28;20042;-59
2021/12/05 05:08:25;;;;;;;16.40;3.00;;;2.70;99.90;;;;;;4955052;28;20047;-61
2021/12/05 05:10:51;;;;;;;12.50;2.47;;;2.60;99.90;;;;;;4949684;28;20579;-59
2021/12/05 05:13:17;;;;;;;10.07;1.75;;;2.60;99.90;;;;;;4949812;28;20035;-60
2021/12/05 05:15:42;;;;;;;10.85;1.40;;;2.60;99.90;;;;;;4948265;28;20027;-59
2021/12/05 05:18:10;;;;;;;6.32;0.80;;;2.60;99.90;;;;;;4946778;28;20046;-61
2021/12/05 05:20:56;;;;;;;8.60;1.90;;;2.70;99.90;;;;;;4941997;28;20031;-60
2021/12/05 05:23:47;;;;;;;15.65;1.45;;;2.60;99.90;;;;;;4950369;28;20038;-60
2021/12/05 05:26:41;;;;;;;10.55;1.30;;;2.60;99.90;;;;;;4941549;28;20040;-60
2021/12/05 05:29:23;;;;;;;3.72;1.30;;;2.50;99.90;;;;;;4950329;28;20587;-60
2021/12/05 05:50:12;;;;;;;6.72;1.75;;;1.80;99.90;;;;;;4953130;28;20046;-60
2021/12/05 05:52:38;;;;;;;12.70;2.47;;;1.70;99.90;;;;;;4954191;28;20497;-60
2021/12/05 05:55:04;;;;;;;17.35;1.67;;;1.60;99.90;;;;;;4951573;28;20031;-61
2021/12/05 06:00:11;;;;;;;7.90;1.80;;;1.60;99.90;;;;;;4951232;28;20077;-59
2021/12/05 06:05:21;;;;;;;9.77;2.28;;;1.70;99.90;;;;;;4951274;28;20393;-61
2021/12/05 06:07:47;;;;;;;6.25;2.10;;;1.70;99.90;;;;;;4952723;28;20032;-61
2021/12/05 06:10:22;;;;;;;11.00;2.95;;;1.80;99.90;;;;;;4950398;28;20408;-60
2021/12/05 06:12:48;;;;;;;11.98;2.10;;;1.80;99.90;;;;;;4944027;28;20034;-60
2021/12/05 06:15:17;;;;;;;9.35;1.88;;;1.90;99.90;;;;;;4952291;28;20453;-59
2021/12/05 06:17:43;;;;;;;11.40;1.95;;;2.00;99.90;;;;;;4950635;28;20038;-59
2021/12/05 06:20:15;;;;;;;7.20;1.85;;;2.00;99.90;;;;;;4951657;28;20027;-61
2021/12/05 06:22:41;;;;;;;8.98;1.55;;;2.10;99.90;;;;;;4953290;28;20131;-60
2021/12/05 06:25:19;;;;;;;16.45;1.80;;;2.20;99.90;;;;;;4958814;28;20075;-61
2021/12/05 06:27:45;;;;;;;14.32;1.73;;;2.30;99.90;;;;;;4954073;28;20113;-59
2021/12/05 06:30:16;;;;;;;11.20;2.38;;;2.40;99.90;;;;;;4957437;28;20036;-59
2021/12/05 06:46:13;;;;;;;12.60;2.22;;;2.60;99.90;;;;;;4950713;28;20133;-61
2021/12/05 06:48:42;;;;;;;13.75;3.55;;;2.70;99.90;;;;;;4960728;28;20030;-60
2021/12/05 06:51:08;;;;;;;18.95;4.15;;;2.70;99.90;;;;;;4947599;28;20095;-61
2021/12/05 06:53:34;;;;;;;21.73;7.43;;;2.70;99.90;;;;;;4947928;28;20027;-61
2021/12/05 06:55:59;;;;;;;21.92;8.18;;;2.80;99.90;;;;;;4951832;28;20035;-61
2021/12/05 06:58:25;;;;;;;18.88;7.15;;;2.80;99.90;;;;;;4943572;28;20039;-60
2021/12/05 07:00:50;;;;;;;7.53;2.40;;;2.80;99.90;;;;;;4949172;28;20606;-60
2021/12/05 07:03:16;;;;;;;9.68;3.03;;;2.80;99.90;;;;;;4936448;28;20043;-60
2021/12/05 07:08:09;;;;;;;6.75;2.45;;;2.80;99.90;;;;;;4954754;28;20027;-61
2021/12/05 07:10:47;;;;;;;10.60;2.42;;;2.80;99.90;;;;;;4957868;28;20023;-60
2021/12/05 07:13:45;;;;;;;10.10;3.60;;;2.80;99.90;;;;;;4951338;28;20115;-56
2021/12/05 07:42:24;;;;;;;21.05;6.97;;;2.50;99.90;;;;;;4954890;28;20042;-60
2021/12/05 07:44:56;;;;;;;11.23;5.20;;;2.50;99.90;;;;;;4949690;28;20031;-60
2021/12/05 07:47:26;;;;;;;22.38;7.22;;;2.50;99.90;;;;;;4949842;28;20412;-61
2021/12/05 07:49:53;;;;;;;28.90;9.32;;;2.50;99.90;;;;;;4945972;28;20027;-61
2021/12/05 07:52:23;;;;;;;60.80;18.20;;;2.40;99.90;;;;;;4950969;28;20035;-61
2021/12/05 07:54:56;;;;;;;23.50;7.75;;;2.40;99.90;;;;;;4944322;28;20457;-61
2021/12/05 07:57:29;;;;;;;31.63;7.73;;;2.50;99.90;;;;;;4949453;28;20127;-60
2021/12/05 08:00:12;;;;;;;10.85;2.90;;;2.60;99.90;;;;;;4951589;28;20027;-60
2021/12/05 08:16:25;;;;;;;6.88;1.90;;;3.40;99.90;;;;;;4931822;29;20046;-58
2021/12/05 08:18:51;;;;;;;7.75;2.63;;;3.60;99.90;;;;;;4932874;29;20494;-60
2021/12/05 08:21:17;;;;;;;10.57;2.28;;;3.70;99.90;;;;;;4927977;29;20085;-60
2021/12/05 08:23:44;;;;;;;11.88;2.58;;;3.80;99.90;;;;;;4930507;29;20038;-60
2021/12/05 08:26:16;;;;;;;7.60;2.08;;;3.80;99.90;;;;;;4935819;29;20043;-59
2021/12/05 08:31:30;;;;;;;6.43;2.15;;;3.80;99.90;;;;;;4929768;29;20038;-54
2021/12/05 10:09:58;;;;;;;4.38;2.28;;;5.50;99.90;;;;;;4896126;29;20036;-60
2021/12/05 10:38:19;;;;;;;3.92;2.10;;;5.30;99.90;;;;;;4956250;28;20453;-60
2021/12/05 10:40:54;;;;;;;9.70;3.70;;;5.30;99.90;;;;;;4950673;28;20484;-61
2021/12/05 10:43:24;;;;;;;4.07;2.10;;;5.30;99.90;;;;;;4958763;28;20031;-60
2021/12/05 10:45:58;;;;;;;5.20;2.00;;;5.30;99.90;;;;;;4964595;28;20049;-61
2021/12/05 10:48:29;;;;;;;;;;;5.40;99.90;;;;;;4961815;28;20063;-61
2021/12/05 10:50:58;;;;;;;10.13;3.22;;;5.30;99.90;;;;;;4963099;28;19910;-61
2021/12/05 10:53:33;;;;;;;8.23;4.25;;;5.40;99.90;;;;;;4957074;28;20023;-61
2021/12/05 10:56:26;;;;;;;3.60;1.85;;;5.40;99.90;;;;;;4960309;28;20018;-61
2021/12/05 10:58:57;;;;;;;5.10;2.63;;;5.50;99.90;;;;;;4957302;28;20042;-61
2021/12/05 11:01:23;;;;;;;3.10;1.63;;;5.60;99.90;;;;;;4965322;28;20022;-61
2021/12/05 11:03:56;;;;;;;7.05;2.53;;;5.60;99.90;;;;;;4937502;28;20049;-60
2021/12/05 11:06:31;;;;;;;1.83;1.52;;;5.70;99.90;;;;;;4964307;28;20029;-59
2021/12/05 11:09:02;;;;;;;3.75;1.83;;;5.80;99.90;;;;;;4954191;28;20038;-61
2021/12/05 11:11:28;;;;;;;2.47;1.50;;;5.80;99.90;;;;;;4954416;28;20023;-60
2021/12/05 11:13:54;;;;;;;4.15;1.90;;;6.00;99.90;;;;;;4953108;28;20115;-61
2021/12/05 11:16:42;;;;;;;4.25;1.60;;;6.00;99.90;;;;;;4957143;28;20402;-60
2021/12/05 11:19:24;;;;;;;3.47;1.75;;;6.00;99.90;;;;;;4955558;28;20023;-61
2021/12/05 11:21:54;;;;;;;4.43;1.27;;;6.10;99.90;;;;;;4962840;28;20030;-59
2021/12/05 11:24:21;;;;;;;4.00;0.95;;;6.10;99.90;;;;;;4952707;28;20024;-61
2021/12/05 11:27:05;;;;;;;3.17;1.30;;;6.10;99.90;;;;;;4953489;28;20031;-60
2021/12/05 11:29:52;;;;;;;3.35;1.00;;;6.20;99.90;;;;;;4956933;28;20031;-60
2021/12/05 11:32:29;;;;;;;3.47;1.27;;;6.40;99.90;;;;;;4956737;28;20027;-60
2021/12/05 11:34:54;;;;;;;1.75;0.90;;;6.40;99.90;;;;;;4957915;28;20073;-60
2021/12/05 11:37:20;;;;;;;4.63;3.00;;;6.60;99.90;;;;;;4952782;28;20368;-60
2021/12/05 11:39:47;;;;;;;4.93;1.60;;;6.60;99.90;;;;;;4957174;28;20026;-60
2021/12/05 11:42:20;;;;;;;2.88;1.70;;;6.70;99.90;;;;;;4953691;28;20508;-59
2021/12/05 11:44:54;;;;;;;3.10;1.42;;;6.80;99.90;;;;;;4949509;28;20031;-60
2021/12/05 11:47:22;;;;;;;5.30;1.30;;;6.70;99.90;;;;;;4953985;28;20445;-60
2021/12/05 11:49:48;;;;;;;2.70;1.35;;;6.90;99.90;;;;;;4958028;28;20039;-61
2021/12/05 11:52:21;;;;;;;4.50;1.83;;;6.90;99.90;;;;;;4954034;28;20140;-60
2021/12/05 11:54:46;;;;;;;1.77;0.80;;;7.00;99.90;;;;;;4950750;29;20020;-60
2021/12/05 11:57:22;;;;;;;10.55;5.72;;;7.00;99.90;;;;;;4955064;28;20023;-59
2021/12/05 11:59:50;;;;;;;6.35;3.50;;;6.90;99.90;;;;;;4949596;29;20043;-61
2021/12/05 12:02:30;;;;;;;15.55;9.20;;;6.90;99.90;;;;;;4950251;28;20054;-61
2021/12/05 12:05:05;;;;;;;34.15;17.02;;;7.00;99.90;;;;;;4956478;28;20042;-60
2021/12/05 12:07:49;;;;;;;67.90;33.25;;;7.00;99.90;;;;;;4958776;28;20030;-61
2021/12/05 12:10:46;;;;;;;104.30;50.95;;;6.90;99.90;;;;;;4966136;28;20034;-59
2021/12/05 12:13:22;;;;;;;30.17;15.15;;;7.00;99.90;;;;;;4958572;28;20505;-60
2021/12/05 12:15:58;;;;;;;61.10;32.55;;;7.00;99.90;;;;;;4953905;28;20081;-60
2021/12/05 12:18:28;;;;;;;8.07;4.60;;;7.00;99.90;;;;;;4959042;28;20027;-60
2021/12/05 12:20:56;;;;;;;14.07;6.78;;;6.90;99.90;;;;;;4960050;28;20043;-61
2021/12/05 12:23:22;;;;;;;6.70;3.78;;;6.90;99.90;;;;;;4962480;28;20043;-61
2021/12/05 12:25:52;;;;;;;10.98;4.97;;;6.80;99.90;;;;;;4962337;28;20116;-60
2021/12/05 12:28:19;;;;;;;7.65;4.20;;;6.80;99.90;;;;;;4960021;28;20034;-61
2021/12/05 12:30:52;;;;;;;3.33;2.15;;;6.80;99.90;;;;;;4966640;28;20034;-61
2021/12/05 12:33:27;;;;;;;4.82;2.40;;;6.70;99.90;;;;;;4960960;28;20031;-60
2021/12/05 12:35:54;;;;;;;6.03;2.67;;;6.60;99.90;;;;;;4963312;28;20109;-60
2021/12/05 12:38:31;;;;;;;6.88;3.10;;;6.50;99.90;;;;;;4954434;28;20046;-60
2021/12/05 12:41:10;;;;;;;6.40;2.90;;;6.60;99.90;;;;;;4964209;28;20025;-60
2021/12/05 12:43:51;;;;;;;3.97;1.52;;;6.50;99.90;;;;;;4954878;28;20028;-60
2021/12/05 12:46:36;;;;;;;6.05;2.30;;;6.50;99.90;;;;;;4963024;28;20034;-60
2021/12/05 12:49:16;;;;;;;8.85;3.83;;;6.50;99.90;;;;;;4955664;28;20031;-60
2021/12/05 12:51:44;;;;;;;10.25;4.15;;;6.40;99.90;;;;;;4954820;28;20477;-60
2021/12/05 12:54:17;;;;;;;4.85;2.55;;;6.40;99.90;;;;;;4956963;28;20042;-58
2021/12/05 12:57:09;;;;;;;5.10;2.65;;;6.40;99.90;;;;;;4954075;28;20107;-60
2021/12/05 12:59:38;;;;;;;14.82;3.92;;;6.30;99.90;;;;;;4955866;28;20023;-60
2021/12/05 13:05:20;;;;;;;6.00;1.60;;;6.30;99.90;;;;;;4954582;28;20535;-59
2021/12/05 13:10:30;;;;;;;2.65;1.50;;;6.20;99.90;;;;;;4963107;28;20042;-61
2021/12/05 13:13:27;;;;;;;1.92;1.17;;;6.30;99.90;;;;;;4953283;28;20019;-60
2021/12/05 13:15:59;;;;;;;7.80;3.40;;;6.20;99.90;;;;;;4952757;28;20042;-60
2021/12/05 13:18:32;;;;;;;8.30;3.55;;;6.20;99.90;;;;;;4954518;28;20094;-59
2021/12/05 13:21:17;;;;;;;6.65;2.17;;;6.20;99.90;;;;;;4956818;28;20080;-61
2021/12/05 13:23:50;;;;;;;9.35;4.50;;;6.20;99.90;;;;;;4962423;28;20030;-59
2021/12/05 13:26:39;;;;;;;14.45;7.00;;;6.10;99.90;;;;;;4958580;28;20039;-60
2021/12/05 13:29:16;;;;;;;21.33;9.30;;;6.00;99.90;;;;;;4953172;28;20449;-60
2021/12/05 13:32:04;;;;;;;8.15;4.72;;;6.00;99.90;;;;;;4960837;28;20101;-59
2021/12/05 13:34:41;;;;;;;5.03;2.10;;;6.00;99.90;;;;;;4958885;28;20039;-60
2021/12/05 13:37:08;;;;;;;3.67;1.65;;;6.00;99.90;;;;;;4951181;28;20636;-59
2021/12/05 13:39:48;;;;;;;4.70;1.70;;;6.00;99.90;;;;;;4961494;28;20027;-60
2021/12/05 13:42:27;;;;;;;4.57;1.48;;;6.00;99.90;;;;;;4955127;28;20031;-59
2021/12/05 13:45:39;;;;;;;3.90;1.10;;;6.00;99.90;;;;;;4958813;28;20027;-58
2021/12/05 13:48:22;;;;;;;3.58;1.38;;;6.00;99.90;;;;;;4950244;28;20043;-60
2021/12/05 13:51:00;;;;;;;3.60;1.30;;;6.10;99.90;;;;;;4953578;28;20110;-59
2021/12/05 13:53:43;;;;;;;6.03;1.60;;;6.10;99.90;;;;;;4955845;28;20544;-58
2021/12/05 13:56:11;;;;;;;7.43;1.00;;;6.10;99.90;;;;;;4967463;28;20030;-59
2021/12/05 13:58:45;;;;;;;2.90;1.30;;;6.10;99.90;;;;;;4958349;28;20027;-60
2021/12/05 14:01:20;;;;;;;3.15;0.90;;;6.00;99.90;;;;;;4967213;28;20061;-58
2021/12/05 14:03:51;;;;;;;3.78;1.80;;;6.00;99.90;;;;;;4955441;28;20062;-60
2021/12/05 14:06:43;;;;;;;3.75;2.00;;;6.10;99.90;;;;;;4970138;28;20035;-59
2021/12/05 14:09:20;;;;;;;7.63;2.00;;;6.00;99.90;;;;;;4959722;28;20042;-58
2021/12/05 14:12:11;;;;;;;4.85;1.70;;;6.00;99.90;;;;;;4955134;28;20030;-59
2021/12/05 14:15:00;;;;;;;2.95;1.60;;;5.90;99.90;;;;;;4958549;28;20036;-58
2021/12/05 14:17:33;;;;;;;4.10;1.40;;;5.90;99.90;;;;;;4964730;28;20027;-59
2021/12/05 14:20:12;;;;;;;1.98;1.17;;;5.90;99.90;;;;;;4962086;28;20031;-60
2021/12/05 14:22:40;;;;;;;1.75;0.80;;;5.90;99.90;;;;;;4967545;28;20038;-60
2021/12/05 14:25:21;;;;;;;3.50;1.27;;;5.80;99.90;;;;;;4954514;28;20058;-60
2021/12/05 14:27:57;;;;;;;3.22;0.98;;;5.70;99.90;;;;;;4959193;28;20063;-59
2021/12/05 14:30:26;;;;;;;2.63;1.80;;;5.80;99.90;;;;;;4960146;28;20047;-59
2021/12/05 14:32:57;;;;;;;5.05;2.13;;;5.70;99.90;;;;;;4966874;28;20464;-60
2021/12/05 14:35:33;;;;;;;17.13;8.80;;;5.70;99.90;;;;;;4959849;28;20035;-59
2021/12/05 14:38:01;;;;;;;7.15;3.38;;;5.60;99.90;;;;;;4962658;28;20027;-60
2021/12/05 14:40:32;;;;;;;1.75;1.10;;;5.60;99.90;;;;;;4960987;28;20035;-60
2021/12/05 14:43:10;;;;;;;13.05;7.13;;;5.50;99.90;;;;;;4962593;28;20038;-60
2021/12/05 14:45:39;;;;;;;11.27;4.55;;;5.60;99.90;;;;;;4966268;28;20066;-61
2021/12/05 14:48:08;;;;;;;1.98;1.17;;;5.50;99.90;;;;;;4961792;28;20039;-60
2021/12/05 14:50:36;;;;;;;2.40;1.27;;;5.50;99.90;;;;;;4959989;28;20405;-60
2021/12/05 14:53:05;;;;;;;2.38;1.25;;;5.50;99.90;;;;;;4962556;28;20031;-60
2021/12/05 14:55:34;;;;;;;3.38;1.30;;;5.50;99.90;;;;;;4963029;28;20572;-60
2021/12/05 14:58:06;;;;;;;2.53;1.70;;;5.50;99.90;;;;;;4963811;28;20029;-59
2021/12/05 15:00:46;;;;;;;6.85;1.40;;;5.50;99.90;;;;;;4961643;28;20085;-60
2021/12/05 15:03:17;;;;;;;2.90;1.25;;;5.50;99.90;;;;;;4956743;28;20024;-57
2021/12/05 15:05:49;;;;;;;2.17;0.95;;;5.50;99.90;;;;;;4961541;28;20027;-60
2021/12/05 15:08:18;;;;;;;3.38;1.50;;;5.50;99.90;;;;;;4957296;28;20559;-60
2021/12/05 15:10:46;;;;;;;3.33;1.48;;;5.50;99.90;;;;;;4961057;28;20551;-60
2021/12/05 15:13:12;;;;;;;3.88;1.17;;;5.50;99.90;;;;;;4960647;28;20519;-59
2021/12/05 15:15:38;;;;;;;1.70;1.10;;;5.40;99.90;;;;;;4968227;28;20114;-59
2021/12/05 15:18:05;;;;;;;2.75;1.30;;;5.40;99.90;;;;;;4957854;28;20083;-60
2021/12/05 15:20:33;;;;;;;8.13;1.30;;;5.40;99.90;;;;;;4963114;28;20401;-59
2021/12/05 15:23:02;;;;;;;2.80;1.83;;;5.40;99.90;;;;;;4963618;28;20481;-60
2021/12/05 15:25:28;;;;;;;3.97;1.90;;;5.40;99.90;;;;;;4963336;28;20042;-60
2021/12/05 15:27:55;;;;;;;4.47;1.98;;;5.40;99.90;;;;;;4965436;28;20038;-60
2021/12/05 15:30:27;;;;;;;6.65;2.53;;;5.30;99.90;;;;;;4952256;28;20063;-59
2021/12/05 15:32:56;;;;;;;1.38;1.20;;;5.30;99.90;;;;;;4965644;28;20416;-60
2021/12/05 15:35:23;;;;;;;5.95;1.90;;;5.30;99.90;;;;;;4958818;28;20043;-59
2021/12/05 15:37:55;;;;;;;8.48;3.10;;;5.20;99.90;;;;;;4962833;28;20026;-59
2021/12/05 15:40:23;;;;;;;4.60;1.63;;;5.20;99.90;;;;;;4961260;28;20078;-58
2021/12/05 15:42:49;;;;;;;2.83;1.30;;;5.20;99.90;;;;;;4952961;28;20026;-58
2021/12/05 15:45:18;;;;;;;7.25;1.75;;;5.20;99.90;;;;;;4960595;28;20121;-60
2021/12/05 15:47:46;;;;;;;5.93;1.38;;;5.20;99.90;;;;;;4949585;28;20118;-60
2021/12/05 15:50:23;;;;;;;33.92;5.38;;;5.10;99.90;;;;;;4960568;28;20035;-60
2021/12/05 15:52:51;;;;;;;3.28;1.65;;;5.20;99.90;;;;;;4949090;28;20030;-60
2021/12/05 15:55:26;;;;;;;7.25;4.10;;;5.20;99.90;;;;;;4957952;28;20396;-59
2021/12/05 15:57:59;;;;;;;5.38;2.95;;;5.20;99.90;;;;;;4952330;28;20383;-60
2021/12/05 16:00:35;;;;;;;5.03;2.40;;;5.20;99.90;;;;;;4959651;28;20027;-60
2021/12/05 16:03:11;;;;;;;3.47;1.70;;;5.20;99.90;;;;;;4958940;28;20058;-59
2021/12/05 16:05:41;;;;;;;7.13;1.95;;;5.20;99.90;;;;;;4962204;28;20153;-61
2021/12/05 16:08:16;;;;;;;4.25;1.98;;;5.20;99.90;;;;;;4956135;28;20117;-59
2021/12/05 16:10:46;;;;;;;6.10;1.80;;;5.20;99.90;;;;;;4960023;28;20041;-61
2021/12/05 16:13:20;;;;;;;4.57;2.13;;;5.20;99.90;;;;;;4959401;28;20493;-59
2021/12/05 16:15:47;;;;;;;;;;;5.20;99.90;;;;;;4954092;28;20055;-59
2021/12/05 16:18:14;;;;;;;5.45;2.90;;;5.10;99.90;;;;;;4958839;28;19906;-60
2021/12/05 16:20:43;;;;;;;5.93;2.97;;;5.10;99.90;;;;;;4963359;28;20134;-60
2021/12/05 16:23:09;;;;;;;7.78;3.55;;;5.10;99.90;;;;;;4957067;28;20035;-60
2021/12/05 16:25:39;;;;;;;4.95;2.70;;;5.10;99.90;;;;;;4962680;28;20039;-60
2021/12/05 16:28:07;;;;;;;5.97;2.60;;;5.00;99.90;;;;;;4957480;28;20035;-59
2021/12/05 16:30:39;;;;;;;4.50;2.00;;;5.00;99.90;;;;;;4957500;28;20038;-60
2021/12/05 16:33:06;;;;;;;4.53;1.73;;;5.10;99.90;;;;;;4962905;28;20192;-60
2021/12/05 16:35:38;;;;;;;5.25;1.83;;;5.10;99.90;;;;;;4961990;28;20029;-58
2021/12/05 16:38:38;;;;;;;7.32;1.60;;;5.10;99.90;;;;;;4959958;28;20059;-59
2021/12/05 16:41:29;;;;;;;3.85;2.33;;;5.00;99.90;;;;;;4956171;28;20585;-60
2021/12/05 16:44:20;;;;;;;4.32;2.13;;;5.00;99.90;;;;;;4953237;28;20023;-59
2021/12/05 16:46:49;;;;;;;4.28;2.20;;;5.00;99.90;;;;;;4957672;28;20028;-59
2021/12/05 16:49:20;;;;;;;7.18;2.65;;;5.00;99.90;;;;;;4958805;28;20034;-60
2021/12/05 16:51:56;;;;;;;4.20;2.10;;;4.90;99.90;;;;;;4955476;28;20513;-60
2021/12/05 16:54:28;;;;;;;9.15;2.20;;;5.00;99.90;;;;;;4951217;28;20168;-57
2021/12/05 16:57:18;;;;;;;4.85;2.53;;;5.00;99.90;;;;;;4962843;28;20031;-60
2021/12/05 16:59:55;;;;;;;5.15;1.52;;;5.00;99.90;;;;;;4956611;28;20034;-61
2021/12/05 17:02:25;;;;;;;4.00;1.40;;;5.00;99.90;;;;;;4958591;28;20031;-60
2021/12/05 17:05:03;;;;;;;2.15;1.30;;;4.90;99.90;;;;;;4955935;28;20492;-60
2021/12/05 17:08:00;;;;;;;4.75;1.65;;;4.90;99.90;;;;;;4961388;28;20027;-60
2021/12/05 17:10:26;;;;;;;3.78;1.85;;;4.90;99.90;;;;;;4965806;28;20063;-59
2021/12/05 17:12:55;;;;;;;3.10;1.42;;;4.90;99.90;;;;;;4958287;28;20055;-60
2021/12/05 17:15:25;;;;;;;2.67;1.45;;;4.90;99.90;;;;;;4966874;28;20489;-59
2021/12/05 17:18:01;;;;;;;4.07;1.50;;;4.90;99.90;;;;;;4958370;28;20015;-61
2021/12/05 17:20:34;;;;;;;4.25;1.52;;;4.90;99.90;;;;;;4958964;28;20039;-59
2021/12/05 17:23:31;;;;;;;8.63;2.50;;;4.90;99.90;;;;;;4964893;28;20035;-60
2021/12/05 17:26:14;;;;;;;4.10;1.63;;;4.90;99.90;;;;;;4957443;28;20504;-60
2021/12/05 17:29:09;;;;;;;6.65;2.42;;;4.90;99.90;;;;;;4961677;28;20098;-58
2021/12/05 17:31:38;;;;;;;;;;;4.90;99.90;;;;;;4962894;28;20056;-60
2021/12/05 17:34:08;;;;;;;2.72;2.00;;;4.90;99.90;;;;;;4964247;28;20134;-58
2021/12/05 17:36:44;;;;;;;4.53;2.25;;;4.90;99.90;;;;;;4964115;28;20050;-60
2021/12/05 17:39:16;;;;;;;6.15;1.63;;;4.90;99.90;;;;;;4965125;28;20023;-61
2021/12/05 17:41:45;;;;;;;3.67;1.73;;;4.90;99.90;;;;;;4962742;28;20030;-60
2021/12/05 17:44:13;;;;;;;5.75;2.30;;;4.90;99.90;;;;;;4964880;28;20062;-60
2021/12/05 17:46:39;;;;;;;3.53;2.15;;;4.80;99.90;;;;;;4963293;28;20489;-60
2021/12/05 17:49:08;;;;;;;5.35;2.30;;;4.80;99.90;;;;;;4964297;28;20030;-59
2021/12/05 17:51:38;;;;;;;6.57;2.05;;;4.90;99.90;;;;;;4963575;28;20049;-61
2021/12/05 17:54:08;;;;;;;3.03;2.00;;;4.80;99.90;;;;;;4951377;28;20555;-60
2021/12/05 17:56:39;;;;;;;5.65;2.30;;;4.80;99.90;;;;;;4968426;28;20023;-60
2021/12/05 17:59:30;;;;;;;9.73;2.95;;;4.80;99.90;;;;;;4957655;28;20523;-61
2021/12/05 18:04:50;;;;;;;3.72;2.10;;;4.80;99.90;;;;;;4963107;28;20097;-59
2021/12/05 18:07:18;;;;;;;7.18;1.75;;;4.80;99.90;;;;;;4965214;28;20019;-60
2021/12/05 18:09:44;;;;;;;6.22;2.85;;;4.70;99.90;;;;;;4957162;28;20721;-56
2021/12/05 18:12:15;;;;;;;4.38;1.90;;;4.70;99.90;;;;;;4961938;28;20042;-58
2021/12/05 18:14:41;;;;;;;4.72;2.38;;;4.70;99.90;;;;;;4964272;28;20038;-59
2021/12/05 18:17:07;;;;;;;8.27;3.97;;;4.70;99.90;;;;;;4965644;28;20027;-57
2021/12/05 18:19:33;;;;;;;6.03;2.92;;;4.70;99.90;;;;;;4962807;28;20680;-57
2021/12/05 18:21:59;;;;;;;6.43;3.28;;;4.60;99.90;;;;;;4965530;28;20030;-60
2021/12/05 18:24:24;;;;;;;19.55;12.48;;;4.60;99.90;;;;;;4963299;28;20035;-59
2021/12/05 18:26:51;;;;;;;7.47;2.45;;;4.60;99.90;;;;;;4969944;28;20030;-59
2021/12/05 18:29:18;;;;;;;9.32;4.22;;;4.60;99.90;;;;;;4951213;28;20023;-60
2021/12/05 18:31:46;;;;;;;5.60;2.30;;;4.60;99.90;;;;;;4962136;28;20455;-61
2021/12/05 18:34:20;;;;;;;11.85;3.33;;;4.50;99.90;;;;;;4963177;28;20026;-59
2021/12/05 18:36:48;;;;;;;7.15;3.63;;;4.50;99.90;;;;;;4957573;28;20026;-60
2021/12/05 18:39:21;;;;;;;8.40;3.03;;;4.50;99.90;;;;;;4955694;28;20046;-60
2021/12/05 18:41:48;;;;;;;7.57;2.85;;;4.40;99.90;;;;;;4958601;28;20023;-60
2021/12/05 18:44:18;;;;;;;9.65;5.72;;;4.40;99.90;;;;;;4964215;28;20030;-60
2021/12/05 18:46:46;;;;;;;11.68;5.65;;;4.30;99.90;;;;;;4962702;28;20137;-61
2021/12/05 18:49:12;;;;;;;9.43;4.60;;;4.20;99.90;;;;;;4945189;28;20035;-60